Flight Track Log - Related Links

Times and Time Zones

All times are in EDT time to prevent confusion due to time zone crossing. See the AWI3970 flight status page for this flight to view local times or setup timezone preferences in your user account.

Time Position Orientation Groundspeed Altitude Reporting Facility
EDT Latitude Longitude Course Direction KTS MPH feet Rate Location/Type
Fri 11:04:45 PM 39.8667 -75.2333 North 150 173 600  Level Philadelphia TRACON
Fri 11:05:39 PM 39.8333 -75.2167 159° South 174 200 2,100 1,900 Climbing Philadelphia TRACON
Fri 11:06:45 PM 39.7667 -75.2167 180° South 252 290 4,400 2,265 Climbing Philadelphia TRACON
Fri 11:07:00 PM 39.8158 -74.8625 105° East  Level FlightAware Approximate
Fri 11:08:00 PM 39.7908 -74.7373 105° East  Level FlightAware Approximate
Fri 11:09:00 PM 39.8387 -74.6447 37° Northeast  Level FlightAware Approximate
Fri 11:09:03 PM 39.7733 -74.9897 88° East 301 346 9,800  Level New York Center
Fri 11:10:00 PM 39.9177 -74.5667 North  Level FlightAware Approximate
Fri 11:10:03 PM 39.7817 -74.8714 85° East 295 339 11,800  Level New York Center
Fri 11:11:05 PM 39.7900 -74.7475 85° East 309 356 13,300 1,623 Climbing New York Center
Fri 11:12:05 PM 39.8517 -74.6539 49° Northeast 317 365 15,100 1,780 Climbing New York Center
Fri 11:13:03 PM 39.9333 -74.5797 35° Northeast 324 373 16,800 1,513 Climbing New York Center
Fri 11:14:04 PM 40.0169 -74.5031 35° Northeast 341 392 18,100 1,230 Climbing New York Center
Fri 11:15:05 PM 40.0969 -74.4178 39° Northeast 370 426 19,300 1,500 Climbing New York Center
Fri 11:16:04 PM 40.1828 -74.3353 36° Northeast 375 432 21,100 1,525 Climbing New York Center
Fri 11:17:03 PM 40.2664 -74.2553 36° Northeast 375 432 22,300 1,250 Climbing New York Center
Fri 11:18:04 PM 40.3481 -74.1669 39° Northeast 375 432 23,600 829 Climbing New York Center
Fri 11:19:06 PM 40.4339 -74.0811 37° Northeast 375 432 24,000 200 Climbing New York Center
Fri 11:20:04 PM 40.5256 -74.0119 30° Northeast 375 432 24,000  Level New York Center
Fri 11:22:07 PM 40.7214 -73.9106 21° North 411 473 24,000  Level Boston Center
Fri 11:23:08 PM 40.8331 -73.8172 32° Northeast 392 451 24,000  Level Boston Center
Fri 11:24:07 PM 40.9319 -73.7533 26° Northeast 385 443 24,000 -303 Level Boston Center
Fri 11:25:07 PM 41.0464 -73.7583 358° North 390 449 23,400 -500 Descending Boston Center
Fri 11:26:07 PM 41.1672 -73.7608 359° North 402 463 23,000 -250 Descending Boston Center
Fri 11:27:07 PM 41.2819 -73.7633 359° North 413 475 22,900 -550 Descending Boston Center
Fri 11:28:07 PM 41.4006 -73.7656 359° North 413 475 21,900 -1,100 Descending Boston Center
Fri 11:29:07 PM 41.5153 -73.7681 359° North 419 482 20,700 -1,200 Descending Boston Center
Fri 11:30:07 PM 41.6236 -73.7703 359° North 405 466 19,500 -1,150 Descending Boston Center
Fri 11:31:07 PM 41.7089 -73.7722 359° North 364 419 18,400 -1,150 Descending Boston Center
Fri 11:32:07 PM 41.8153 -73.7769 358° North 344 396 17,200 -1,100 Descending Boston Center
Fri 11:33:07 PM 41.8986 -73.7789 359° North 339 390 16,200 -1,235 Descending Boston Center
Fri 11:33:49 PM 41.9736 -73.7833 357° North 329 379 15,100 -1,300 Descending Boston Center
Fri 11:34:07 PM 41.9986 -73.7811 North 334 384 14,900 -1,231 Descending Boston Center
Fri 11:35:07 PM 42.0964 -73.7858 358° North 327 376 13,500 -1,450 Descending Boston Center
Fri 11:36:07 PM 42.1925 -73.7822 North 342 394 12,000 -1,400 Descending Boston Center
Fri 11:37:07 PM 42.2758 -73.7731 North 327 376 10,700 -1,520 Descending Boston Center
Fri 11:37:22 PM 42.2967 -73.7733 359° North 289 333 10,100 -1,920 Descending Boston Center
Fri 11:38:22 PM 42.3803 -73.7611 North 291 335 8,300 -1,785 Descending Boston Center
Fri 11:39:23 PM 42.4575 -73.7542 North 293 337 6,500 -1,770 Descending Boston Center
Fri 11:40:24 PM 42.5347 -73.7475 North 276 318 4,700 -1,289 Descending Boston Center
Fri 11:41:24 PM 42.6078 -73.7350 North 264 304 3,900 -347 Descending Boston Center
Fri 11:42:25 PM 42.6828 -73.7281 North 242 278 4,000 -443 Climbing Boston Center
Fri 11:43:26 PM 42.7433 -73.7236 North 215 247 3,000 -1,140 Descending Boston Center
Fri 11:44:26 PM 42.8039 -73.7192 North 221 254 1,700 -1,300 Descending Boston Center

Login

Don't have an account? Register now (free) for customized features, flight alerts, and more!